sensor_id;sensor_type;location;lat;lon;timestamp;pressure;altitude;pressure_sealevel;temperature;humidity
49393;BME280;35268;42.642;23.308;2023-01-28T00:01:15;93258.25;;;-1.31;82.36
49393;BME280;35268;42.642;23.308;2023-01-28T00:03:41;93263.72;;;-1.32;81.95
49393;BME280;35268;42.642;23.308;2023-01-28T00:06:09;93257.47;;;-1.31;81.81
49393;BME280;35268;42.642;23.308;2023-01-28T00:08:35;93265.84;;;-1.29;81.60
49393;BME280;35268;42.642;23.308;2023-01-28T00:11:03;93267.44;;;-1.23;81.28
49393;BME280;35268;42.642;23.308;2023-01-28T00:13:29;93275.28;;;-1.28;81.48
49393;BME280;35268;42.642;23.308;2023-01-28T00:15:57;93287.06;;;-1.26;81.25
49393;BME280;35268;42.642;23.308;2023-01-28T00:18:25;93285.53;;;-1.16;81.40
49393;BME280;35268;42.642;23.308;2023-01-28T00:21:00;93287.88;;;-1.15;81.03
49393;BME280;35268;42.642;23.308;2023-01-28T00:23:28;93289.72;;;-1.15;81.32
49393;BME280;35268;42.642;23.308;2023-01-28T00:25:57;93292.56;;;-1.22;80.49
49393;BME280;35268;42.642;23.308;2023-01-28T00:28:22;93293.06;;;-1.25;80.48
49393;BME280;35268;42.642;23.308;2023-01-28T00:30:48;93297.28;;;-1.24;80.51
49393;BME280;35268;42.642;23.308;2023-01-28T00:33:13;93295.44;;;-1.24;80.86
49393;BME280;35268;42.642;23.308;2023-01-28T00:35:39;93295.97;;;-1.22;79.82
49393;BME280;35268;42.642;23.308;2023-01-28T00:38:05;93294.06;;;-1.31;80.37
49393;BME280;35268;42.642;23.308;2023-01-28T00:40:30;93293.00;;;-1.35;80.84
49393;BME280;35268;42.642;23.308;2023-01-28T00:42:56;93302.94;;;-1.32;81.01
49393;BME280;35268;42.642;23.308;2023-01-28T00:45:21;93302.41;;;-1.34;81.13
49393;BME280;35268;42.642;23.308;2023-01-28T00:47:47;93307.09;;;-1.36;81.29
49393;BME280;35268;42.642;23.308;2023-01-28T00:50:13;93305.84;;;-1.34;80.79
49393;BME280;35268;42.642;23.308;2023-01-28T00:52:39;93303.44;;;-1.41;81.08
49393;BME280;35268;42.642;23.308;2023-01-28T00:55:05;93304.22;;;-1.40;81.59
49393;BME280;35268;42.642;23.308;2023-01-28T00:57:30;93308.16;;;-1.37;81.05
49393;BME280;35268;42.642;23.308;2023-01-28T00:59:56;93309.47;;;-1.40;80.99
49393;BME280;35268;42.642;23.308;2023-01-28T01:02:22;93304.47;;;-1.42;80.98
49393;BME280;35268;42.642;23.308;2023-01-28T01:04:47;93305.47;;;-1.48;81.24
49393;BME280;35268;42.642;23.308;2023-01-28T01:07:30;93302.34;;;-1.45;81.08
49393;BME280;35268;42.642;23.308;2023-01-28T01:10:15;93304.69;;;-1.48;81.09
49393;BME280;35268;42.642;23.308;2023-01-28T01:12:42;93307.31;;;-1.48;80.86
49393;BME280;35268;42.642;23.308;2023-01-28T01:15:08;93300.75;;;-1.51;81.23
49393;BME280;35268;42.642;23.308;2023-01-28T01:17:36;93305.47;;;-1.48;81.44
49393;BME280;35268;42.642;23.308;2023-01-28T01:20:03;93315.94;;;-1.48;81.49
49393;BME280;35268;42.642;23.308;2023-01-28T01:22:34;93307.03;;;-1.47;81.52
49393;BME280;35268;42.642;23.308;2023-01-28T01:25:01;93308.88;;;-1.47;81.64
49393;BME280;35268;42.642;23.308;2023-01-28T01:27:28;93306.03;;;-1.41;81.38
49393;BME280;35268;42.642;23.308;2023-01-28T01:29:53;93316.47;;;-1.46;81.46
49393;BME280;35268;42.642;23.308;2023-01-28T01:32:19;93318.00;;;-1.50;81.65
49393;BME280;35268;42.642;23.308;2023-01-28T01:34:44;93314.88;;;-1.52;81.56
49393;BME280;35268;42.642;23.308;2023-01-28T01:37:10;93325.53;;;-1.58;82.04
49393;BME280;35268;42.642;23.308;2023-01-28T01:39:35;93318.25;;;-1.56;82.18
49393;BME280;35268;42.642;23.308;2023-01-28T01:42:01;93313.78;;;-1.56;82.30
49393;BME280;35268;42.642;23.308;2023-01-28T01:47:20;93311.19;;;-1.56;82.57
49393;BME280;35268;42.642;23.308;2023-01-28T01:49:48;93315.09;;;-1.53;82.29
49393;BME280;35268;42.642;23.308;2023-01-28T01:52:17;93323.00;;;-1.48;82.32
49393;BME280;35268;42.642;23.308;2023-01-28T01:54:46;93322.16;;;-1.54;82.05
49393;BME280;35268;42.642;23.308;2023-01-28T01:57:25;93320.84;;;-1.56;82.00
49393;BME280;35268;42.642;23.308;2023-01-28T01:59:52;93315.88;;;-1.58;81.99
49393;BME280;35268;42.642;23.308;2023-01-28T02:02:18;93317.69;;;-1.58;82.42
49393;BME280;35268;42.642;23.308;2023-01-28T02:04:44;93323.47;;;-1.56;82.58
49393;BME280;35268;42.642;23.308;2023-01-28T02:07:14;93327.41;;;-1.54;82.31
49393;BME280;35268;42.642;23.308;2023-01-28T02:09:40;93330.56;;;-1.47;82.43
49393;BME280;35268;42.642;23.308;2023-01-28T02:14:37;93329.78;;;-1.52;82.04
49393;BME280;35268;42.642;23.308;2023-01-28T02:17:05;93332.16;;;-1.46;82.12
49393;BME280;35268;42.642;23.308;2023-01-28T02:19:36;93334.41;;;-1.59;81.70
49393;BME280;35268;42.642;23.308;2023-01-28T02:28:08;93332.09;;;-1.56;81.67
49393;BME280;35268;42.642;23.308;2023-01-28T02:33:23;93329.47;;;-1.56;81.43
49393;BME280;35268;42.642;23.308;2023-01-28T02:35:53;93336.47;;;-1.62;81.94
49393;BME280;35268;42.642;23.308;2023-01-28T02:40:48;93343.56;;;-1.57;81.46
49393;BME280;35268;42.642;23.308;2023-01-28T02:43:39;93339.16;;;-1.56;81.38
49393;BME280;35268;42.642;23.308;2023-01-28T02:49:27;93341.41;;;-1.65;81.56
49393;BME280;35268;42.642;23.308;2023-01-28T02:52:10;93342.50;;;-1.61;81.70
49393;BME280;35268;42.642;23.308;2023-01-28T02:54:55;93339.06;;;-1.67;80.98
49393;BME280;35268;42.642;23.308;2023-01-28T02:58:17;93329.41;;;-1.66;81.92
49393;BME280;35268;42.642;23.308;2023-01-28T03:00:26;93331.25;;;-1.62;81.86
49393;BME280;35268;42.642;23.308;2023-01-28T03:05:34;93347.25;;;-1.53;81.80
49393;BME280;35268;42.642;23.308;2023-01-28T03:08:03;93339.25;;;-1.41;81.54
49393;BME280;35268;42.642;23.308;2023-01-28T03:10:52;93332.69;;;-1.44;80.92
49393;BME280;35268;42.642;23.308;2023-01-28T03:13:37;93343.72;;;-1.36;81.14
49393;BME280;35268;42.642;23.308;2023-01-28T03:16:22;93341.63;;;-1.34;80.72
49393;BME280;35268;42.642;23.308;2023-01-28T03:19:07;93335.06;;;-1.42;80.72
49393;BME280;35268;42.642;23.308;2023-01-28T03:21:52;93342.16;;;-1.37;80.76
49393;BME280;35268;42.642;23.308;2023-01-28T03:24:46;93344.69;;;-1.48;80.13
49393;BME280;35268;42.642;23.308;2023-01-28T03:27:45;93346.72;;;-1.55;80.41
49393;BME280;35268;42.642;23.308;2023-01-28T03:30:41;93348.00;;;-1.57;80.70
49393;BME280;35268;42.642;23.308;2023-01-28T03:33:28;93342.47;;;-1.66;80.20
49393;BME280;35268;42.642;23.308;2023-01-28T03:36:14;93348.69;;;-1.72;80.64
49393;BME280;35268;42.642;23.308;2023-01-28T03:38:58;93347.63;;;-1.71;80.76
49393;BME280;35268;42.642;23.308;2023-01-28T03:41:24;93348.69;;;-1.72;80.99
49393;BME280;35268;42.642;23.308;2023-01-28T03:43:50;93352.28;;;-1.78;80.75
49393;BME280;35268;42.642;23.308;2023-01-28T03:46:18;93346.06;;;-1.72;81.06
49393;BME280;35268;42.642;23.308;2023-01-28T03:48:44;93354.69;;;-1.72;80.58
49393;BME280;35268;42.642;23.308;2023-01-28T03:51:09;93353.59;;;-1.81;80.51
49393;BME280;35268;42.642;23.308;2023-01-28T03:53:36;93356.78;;;-1.74;80.54
49393;BME280;35268;42.642;23.308;2023-01-28T03:56:01;93370.34;;;-1.77;80.35
49393;BME280;35268;42.642;23.308;2023-01-28T03:58:27;93361.66;;;-1.83;80.34
49393;BME280;35268;42.642;23.308;2023-01-28T04:01:10;93361.44;;;-1.81;80.48
49393;BME280;35268;42.642;23.308;2023-01-28T04:03:35;93363.78;;;-1.79;80.21
49393;BME280;35268;42.642;23.308;2023-01-28T04:06:06;93357.75;;;-1.80;80.15
49393;BME280;35268;42.642;23.308;2023-01-28T04:08:32;93363.81;;;-1.74;80.48
49393;BME280;35268;42.642;23.308;2023-01-28T04:10:58;93366.88;;;-1.83;79.80
49393;BME280;35268;42.642;23.308;2023-01-28T04:13:42;93371.06;;;-1.82;79.73
49393;BME280;35268;42.642;23.308;2023-01-28T04:16:12;93360.59;;;-1.87;80.00
49393;BME280;35268;42.642;23.308;2023-01-28T04:18:37;93376.56;;;-1.83;80.00
49393;BME280;35268;42.642;23.308;2023-01-28T04:21:03;93375.28;;;-1.80;79.82
49393;BME280;35268;42.642;23.308;2023-01-28T04:23:29;93371.88;;;-1.81;79.81
49393;BME280;35268;42.642;23.308;2023-01-28T04:25:55;93384.09;;;-1.87;79.73
49393;BME280;35268;42.642;23.308;2023-01-28T04:28:21;93390.66;;;-1.84;79.86
49393;BME280;35268;42.642;23.308;2023-01-28T04:30:46;93379.34;;;-1.90;79.80
49393;BME280;35268;42.642;23.308;2023-01-28T04:33:12;93377.56;;;-1.89;80.53
49393;BME280;35268;42.642;23.308;2023-01-28T04:35:38;93386.72;;;-1.87;80.49
49393;BME280;35268;42.642;23.308;2023-01-28T04:38:03;93387.50;;;-1.86;80.62
49393;BME280;35268;42.642;23.308;2023-01-28T04:40:29;93396.41;;;-1.82;80.68
49393;BME280;35268;42.642;23.308;2023-01-28T04:42:55;93395.09;;;-1.85;80.46
49393;BME280;35268;42.642;23.308;2023-01-28T04:45:21;93400.31;;;-1.85;80.84
49393;BME280;35268;42.642;23.308;2023-01-28T04:47:47;93399.22;;;-1.89;80.76
49393;BME280;35268;42.642;23.308;2023-01-28T04:50:12;93400.75;;;-1.93;80.88
49393;BME280;35268;42.642;23.308;2023-01-28T04:52:38;93395.03;;;-1.90;80.77
49393;BME280;35268;42.642;23.308;2023-01-28T04:55:04;93409.63;;;-1.94;80.87
49393;BME280;35268;42.642;23.308;2023-01-28T04:57:29;93407.00;;;-1.94;81.02
49393;BME280;35268;42.642;23.308;2023-01-28T04:59:55;93405.44;;;-1.95;81.82
49393;BME280;35268;42.642;23.308;2023-01-28T05:02:20;93408.28;;;-1.96;81.85
49393;BME280;35268;42.642;23.308;2023-01-28T05:04:46;93404.66;;;-1.95;81.59
49393;BME280;35268;42.642;23.308;2023-01-28T05:07:11;93413.22;;;-2.00;81.78
49393;BME280;35268;42.642;23.308;2023-01-28T05:09:37;93414.28;;;-1.96;80.98
49393;BME280;35268;42.642;23.308;2023-01-28T05:12:02;93416.66;;;-1.94;81.53
49393;BME280;35268;42.642;23.308;2023-01-28T05:14:28;93430.47;;;-1.99;81.69
49393;BME280;35268;42.642;23.308;2023-01-28T05:16:53;93426.03;;;-1.98;81.32
49393;BME280;35268;42.642;23.308;2023-01-28T05:19:19;93428.66;;;-1.98;81.52
49393;BME280;35268;42.642;23.308;2023-01-28T05:21:44;93433.00;;;-2.04;81.36
49393;BME280;35268;42.642;23.308;2023-01-28T05:24:10;93438.78;;;-2.02;81.69
49393;BME280;35268;42.642;23.308;2023-01-28T05:26:35;93432.53;;;-2.01;81.52
49393;BME280;35268;42.642;23.308;2023-01-28T05:29:01;93442.69;;;-2.05;80.84
49393;BME280;35268;42.642;23.308;2023-01-28T05:31:27;93427.56;;;-2.03;81.16
49393;BME280;35268;42.642;23.308;2023-01-28T05:33:52;93449.53;;;-1.98;81.30
49393;BME280;35268;42.642;23.308;2023-01-28T05:36:18;93445.47;;;-1.89;80.54
49393;BME280;35268;42.642;23.308;2023-01-28T05:38:43;93448.34;;;-1.86;80.68
49393;BME280;35268;42.642;23.308;2023-01-28T05:41:09;93444.94;;;-1.91;80.84
49393;BME280;35268;42.642;23.308;2023-01-28T05:43:34;93452.44;;;-1.95;80.59
49393;BME280;35268;42.642;23.308;2023-01-28T05:46:00;93449.31;;;-1.97;80.32
49393;BME280;35268;42.642;23.308;2023-01-28T05:48:26;93439.16;;;-1.93;80.37
49393;BME280;35268;42.642;23.308;2023-01-28T05:50:51;93452.75;;;-1.91;80.83
49393;BME280;35268;42.642;23.308;2023-01-28T05:53:16;93449.66;;;-1.88;80.36
49393;BME280;35268;42.642;23.308;2023-01-28T05:55:42;93453.00;;;-1.93;80.36
49393;BME280;35268;42.642;23.308;2023-01-28T05:58:07;93448.56;;;-1.92;80.43
49393;BME280;35268;42.642;23.308;2023-01-28T06:00:33;93460.84;;;-1.93;80.37
49393;BME280;35268;42.642;23.308;2023-01-28T06:02:58;93448.78;;;-1.94;80.04
49393;BME280;35268;42.642;23.308;2023-01-28T06:05:24;93453.31;;;-1.89;80.55
49393;BME280;35268;42.642;23.308;2023-01-28T06:07:49;93465.06;;;-1.87;80.65
49393;BME280;35268;42.642;23.308;2023-01-28T06:10:15;93465.84;;;-1.86;80.27
49393;BME280;35268;42.642;23.308;2023-01-28T06:12:43;93466.91;;;-1.87;80.01
49393;BME280;35268;42.642;23.308;2023-01-28T06:15:09;93472.97;;;-1.82;80.33
49393;BME280;35268;42.642;23.308;2023-01-28T06:17:35;93481.53;;;-1.86;80.26
49393;BME280;35268;42.642;23.308;2023-01-28T06:20:01;93480.22;;;-1.89;80.32
49393;BME280;35268;42.642;23.308;2023-01-28T06:22:26;93492.22;;;-1.88;80.90
49393;BME280;35268;42.642;23.308;2023-01-28T06:24:51;93491.44;;;-1.88;80.67
49393;BME280;35268;42.642;23.308;2023-01-28T06:27:17;93490.16;;;-1.86;80.92
49393;BME280;35268;42.642;23.308;2023-01-28T06:29:42;93492.28;;;-1.83;80.64
49393;BME280;35268;42.642;23.308;2023-01-28T06:32:08;93499.72;;;-1.96;80.80
49393;BME280;35268;42.642;23.308;2023-01-28T06:34:33;93508.63;;;-1.92;80.79
49393;BME280;35268;42.642;23.308;2023-01-28T06:36:58;93511.25;;;-1.92;80.71
49393;BME280;35268;42.642;23.308;2023-01-28T06:39:24;93510.03;;;-1.85;80.48
49393;BME280;35268;42.642;23.308;2023-01-28T06:41:51;93522.00;;;-1.89;80.49
49393;BME280;35268;42.642;23.308;2023-01-28T06:44:17;93517.03;;;-1.90;80.74
49393;BME280;35268;42.642;23.308;2023-01-28T06:46:42;93522.56;;;-1.87;80.64
49393;BME280;35268;42.642;23.308;2023-01-28T06:49:07;93521.78;;;-1.87;80.67
49393;BME280;35268;42.642;23.308;2023-01-28T06:51:33;93525.63;;;-1.90;81.00
49393;BME280;35268;42.642;23.308;2023-01-28T06:53:58;93534.41;;;-1.79;80.40
49393;BME280;35268;42.642;23.308;2023-01-28T06:56:24;93539.31;;;-1.83;80.52
49393;BME280;35268;42.642;23.308;2023-01-28T06:58:50;93548.47;;;-1.80;80.42
49393;BME280;35268;42.642;23.308;2023-01-28T07:01:15;93540.34;;;-1.84;80.77
49393;BME280;35268;42.642;23.308;2023-01-28T07:03:41;93539.56;;;-1.84;81.12
49393;BME280;35268;42.642;23.308;2023-01-28T07:06:06;93538.03;;;-1.80;80.83
49393;BME280;35268;42.642;23.308;2023-01-28T07:08:32;93544.03;;;-1.79;80.81
49393;BME280;35268;42.642;23.308;2023-01-28T07:10:58;93553.16;;;-1.82;80.85
49393;BME280;35268;42.642;23.308;2023-01-28T07:13:23;93554.63;;;-1.91;80.82
49393;BME280;35268;42.642;23.308;2023-01-28T07:15:49;93560.22;;;-1.83;81.03
49393;BME280;35268;42.642;23.308;2023-01-28T07:18:14;93565.91;;;-1.86;81.18
49393;BME280;35268;42.642;23.308;2023-01-28T07:20:40;93550.25;;;-1.86;80.97
49393;BME280;35268;42.642;23.308;2023-01-28T07:23:06;93574.16;;;-1.94;80.74
49393;BME280;35268;42.642;23.308;2023-01-28T07:25:31;93565.25;;;-1.98;81.09
49393;BME280;35268;42.642;23.308;2023-01-28T07:27:57;93575.13;;;-2.00;81.47
49393;BME280;35268;42.642;23.308;2023-01-28T07:30:22;93565.00;;;-1.96;80.88
49393;BME280;35268;42.642;23.308;2023-01-28T07:32:55;93574.16;;;-1.94;81.24
49393;BME280;35268;42.642;23.308;2023-01-28T07:35:22;93586.44;;;-1.94;81.39
49393;BME280;35268;42.642;23.308;2023-01-28T07:37:59;93582.00;;;-1.94;81.07
49393;BME280;35268;42.642;23.308;2023-01-28T07:40:25;93583.38;;;-1.91;81.34
49393;BME280;35268;42.642;23.308;2023-01-28T07:42:50;93580.75;;;-1.91;81.27
49393;BME280;35268;42.642;23.308;2023-01-28T07:45:17;93588.34;;;-1.90;81.01
49393;BME280;35268;42.642;23.308;2023-01-28T07:47:42;93583.97;;;-1.84;80.99
49393;BME280;35268;42.642;23.308;2023-01-28T07:50:09;93582.25;;;-1.73;80.55
49393;BME280;35268;42.642;23.308;2023-01-28T07:52:36;93590.22;;;-1.63;80.54
49393;BME280;35268;42.642;23.308;2023-01-28T07:55:11;93595.44;;;-1.63;79.40
49393;BME280;35268;42.642;23.308;2023-01-28T07:57:51;93597.03;;;-1.62;80.06
49393;BME280;35268;42.642;23.308;2023-01-28T08:00:17;93591.38;;;-1.54;79.42
49393;BME280;35268;42.642;23.308;2023-01-28T08:02:43;93594.31;;;-1.50;79.74
49393;BME280;35268;42.642;23.308;2023-01-28T08:05:14;93600.88;;;-1.48;78.96
49393;BME280;35268;42.642;23.308;2023-01-28T08:07:39;93599.81;;;-1.47;78.74
49393;BME280;35268;42.642;23.308;2023-01-28T08:10:05;93600.97;;;-1.37;78.69
49393;BME280;35268;42.642;23.308;2023-01-28T08:12:31;93606.88;;;-1.25;78.90
49393;BME280;35268;42.642;23.308;2023-01-28T08:14:56;93606.19;;;-1.15;77.52
49393;BME280;35268;42.642;23.308;2023-01-28T08:17:21;93605.19;;;-1.09;77.99
49393;BME280;35268;42.642;23.308;2023-01-28T08:19:47;93609.69;;;-1.05;76.98
49393;BME280;35268;42.642;23.308;2023-01-28T08:22:12;93604.91;;;-1.13;76.72
49393;BME280;35268;42.642;23.308;2023-01-28T08:24:43;93614.28;;;-1.17;77.40
49393;BME280;35268;42.642;23.308;2023-01-28T08:27:08;93610.31;;;-1.19;77.55
49393;BME280;35268;42.642;23.308;2023-01-28T08:29:34;93618.22;;;-1.14;77.98
49393;BME280;35268;42.642;23.308;2023-01-28T08:31:59;93614.38;;;-1.07;77.93
49393;BME280;35268;42.642;23.308;2023-01-28T08:34:25;93611.81;;;-1.02;77.67
49393;BME280;35268;42.642;23.308;2023-01-28T08:36:50;93610.78;;;-1.01;77.20
49393;BME280;35268;42.642;23.308;2023-01-28T08:39:16;93612.28;;;-1.05;77.33
49393;BME280;35268;42.642;23.308;2023-01-28T08:41:41;93621.03;;;-0.94;76.97
49393;BME280;35268;42.642;23.308;2023-01-28T08:44:06;93606.38;;;-0.95;76.52
49393;BME280;35268;42.642;23.308;2023-01-28T08:46:32;93616.88;;;-0.90;77.13
49393;BME280;35268;42.642;23.308;2023-01-28T08:48:57;93622.47;;;-0.81;76.32
49393;BME280;35268;42.642;23.308;2023-01-28T08:51:23;93612.00;;;-0.81;76.16
49393;BME280;35268;42.642;23.308;2023-01-28T08:53:48;93620.03;;;-0.88;75.77
49393;BME280;35268;42.642;23.308;2023-01-28T08:56:13;93624.59;;;-0.78;76.42
49393;BME280;35268;42.642;23.308;2023-01-28T08:58:39;93619.41;;;-0.73;76.41
49393;BME280;35268;42.642;23.308;2023-01-28T09:01:05;93619.78;;;-0.59;75.37
49393;BME280;35268;42.642;23.308;2023-01-28T09:03:31;93616.81;;;-0.68;75.24
49393;BME280;35268;42.642;23.308;2023-01-28T09:06:01;93610.81;;;-0.68;75.28
49393;BME280;35268;42.642;23.308;2023-01-28T09:08:26;93607.25;;;-0.57;75.45
49393;BME280;35268;42.642;23.308;2023-01-28T09:10:56;93613.81;;;-0.49;75.98
49393;BME280;35268;42.642;23.308;2023-01-28T09:13:22;93621.75;;;-0.39;76.23
49393;BME280;35268;42.642;23.308;2023-01-28T09:15:48;93621.53;;;-0.37;75.80
49393;BME280;35268;42.642;23.308;2023-01-28T09:18:13;93623.38;;;-0.33;76.12
49393;BME280;35268;42.642;23.308;2023-01-28T09:20:39;93623.91;;;-0.31;77.42
49393;BME280;35268;42.642;23.308;2023-01-28T09:23:05;93621.38;;;-0.21;77.13
49393;BME280;35268;42.642;23.308;2023-01-28T09:25:31;93636.56;;;-0.23;75.49
49393;BME280;35268;42.642;23.308;2023-01-28T09:27:56;93624.69;;;-0.35;75.61
49393;BME280;35268;42.642;23.308;2023-01-28T09:30:22;93629.22;;;-0.26;76.05
49393;BME280;35268;42.642;23.308;2023-01-28T09:32:51;93634.66;;;-0.32;75.61
49393;BME280;35268;42.642;23.308;2023-01-28T09:35:17;93624.38;;;-0.39;76.62
49393;BME280;35268;42.642;23.308;2023-01-28T09:37:44;93617.00;;;-0.47;76.15
49393;BME280;35268;42.642;23.308;2023-01-28T09:40:29;93620.16;;;-0.45;76.00
49393;BME280;35268;42.642;23.308;2023-01-28T09:43:05;93626.66;;;-0.53;75.70
49393;BME280;35268;42.642;23.308;2023-01-28T09:45:46;93641.00;;;-0.55;76.14
49393;BME280;35268;42.642;23.308;2023-01-28T09:48:18;93624.72;;;-0.63;76.72
49393;BME280;35268;42.642;23.308;2023-01-28T09:50:48;93620.16;;;-0.45;76.89
49393;BME280;35268;42.642;23.308;2023-01-28T09:53:20;93624.84;;;-0.47;76.60
49393;BME280;35268;42.642;23.308;2023-01-28T09:55:49;93612.75;;;-0.53;76.52
49393;BME280;35268;42.642;23.308;2023-01-28T09:58:17;93618.25;;;-0.55;76.55
49393;BME280;35268;42.642;23.308;2023-01-28T10:03:51;93624.84;;;-0.47;76.63
49393;BME280;35268;42.642;23.308;2023-01-28T10:06:23;93626.91;;;-0.54;75.94
49393;BME280;35268;42.642;23.308;2023-01-28T10:14:36;93609.22;;;-0.69;77.07
49393;BME280;35268;42.642;23.308;2023-01-28T10:17:26;93610.81;;;-0.68;77.61
49393;BME280;35268;42.642;23.308;2023-01-28T10:22:33;93607.09;;;-0.40;77.58
49393;BME280;35268;42.642;23.308;2023-01-28T10:25:05;93613.88;;;-0.44;77.26
49393;BME280;35268;42.642;23.308;2023-01-28T10:27:33;93610.13;;;-0.53;77.04
49393;BME280;35268;42.642;23.308;2023-01-28T10:30:19;93620.81;;;-0.60;76.85
49393;BME280;35268;42.642;23.308;2023-01-28T10:32:50;93613.41;;;-0.68;77.24
49393;BME280;35268;42.642;23.308;2023-01-28T10:35:16;93628.38;;;-0.64;77.74
49393;BME280;35268;42.642;23.308;2023-01-28T10:37:42;93628.19;;;-0.57;78.51
49393;BME280;35268;42.642;23.308;2023-01-28T10:40:16;93621.56;;;-0.65;78.04
49393;BME280;35268;42.642;23.308;2023-01-28T10:42:42;93621.06;;;-0.62;77.85
49393;BME280;35268;42.642;23.308;2023-01-28T10:45:19;93617.41;;;-0.61;78.33
49393;BME280;35268;42.642;23.308;2023-01-28T10:48:06;93617.66;;;-0.62;77.59
49393;BME280;35268;42.642;23.308;2023-01-28T10:50:33;93622.34;;;-0.64;78.52
49393;BME280;35268;42.642;23.308;2023-01-28T10:53:02;93609.75;;;-0.67;78.40
49393;BME280;35268;42.642;23.308;2023-01-28T10:55:30;93610.50;;;-0.72;78.33
49393;BME280;35268;42.642;23.308;2023-01-28T10:57:59;93604.28;;;-0.66;79.05
49393;BME280;35268;42.642;23.308;2023-01-28T11:00:34;93602.78;;;-0.56;79.05
49393;BME280;35268;42.642;23.308;2023-01-28T11:03:01;93607.88;;;-0.39;78.63
49393;BME280;35268;42.642;23.308;2023-01-28T11:05:28;93607.41;;;-0.36;78.07
49393;BME280;35268;42.642;23.308;2023-01-28T11:08:27;93610.75;;;-0.41;77.74
49393;BME280;35268;42.642;23.308;2023-01-28T11:10:54;93607.06;;;-0.45;77.51
49393;BME280;35268;42.642;23.308;2023-01-28T11:13:22;93604.44;;;-0.45;77.73
49393;BME280;35268;42.642;23.308;2023-01-28T11:16:02;93609.97;;;-0.42;77.19
49393;BME280;35268;42.642;23.308;2023-01-28T11:18:32;93601.75;;;-0.55;76.84
49393;BME280;35268;42.642;23.308;2023-01-28T11:21:02;93607.25;;;-0.57;77.07
49393;BME280;35268;42.642;23.308;2023-01-28T11:23:31;93602.34;;;-0.48;77.22
49393;BME280;35268;42.642;23.308;2023-01-28T11:26:08;93611.81;;;-0.42;77.48
49393;BME280;35268;42.642;23.308;2023-01-28T11:28:40;93600.78;;;-0.44;76.85
49393;BME280;35268;42.642;23.308;2023-01-28T11:31:08;93606.09;;;-0.34;76.70
49393;BME280;35268;42.642;23.308;2023-01-28T11:33:37;93596.94;;;-0.31;76.11
49393;BME280;35268;42.642;23.308;2023-01-28T11:36:13;93608.47;;;-0.32;74.70
49393;BME280;35268;42.642;23.308;2023-01-28T11:38:54;93618.06;;;-0.43;75.36
49393;BME280;35268;42.642;23.308;2023-01-28T11:41:33;93596.81;;;-0.52;74.93
49393;BME280;35268;42.642;23.308;2023-01-28T11:44:26;93601.28;;;-0.47;75.87
49393;BME280;35268;42.642;23.308;2023-01-28T11:52:04;93596.88;;;-0.42;74.83
49393;BME280;35268;42.642;23.308;2023-01-28T11:54:46;93600.81;;;-0.39;75.70
49393;BME280;35268;42.642;23.308;2023-01-28T11:57:25;93595.63;;;-0.34;75.62
49393;BME280;35268;42.642;23.308;2023-01-28T12:02:47;93586.78;;;-0.23;74.82
49393;BME280;35268;42.642;23.308;2023-01-28T12:08:25;93597.13;;;-0.01;75.11
49393;BME280;35268;42.642;23.308;2023-01-28T12:11:35;93609.03;;;0.12;74.14
49393;BME280;35268;42.642;23.308;2023-01-28T12:14:11;93604.03;;;0.11;73.25
49393;BME280;35268;42.642;23.308;2023-01-28T12:17:06;93600.59;;;0.05;72.12
49393;BME280;35268;42.642;23.308;2023-01-28T12:19:51;93601.06;;;-0.03;72.46
49393;BME280;35268;42.642;23.308;2023-01-28T12:26:03;93604.22;;;-0.01;72.64
49393;BME280;35268;42.642;23.308;2023-01-28T12:41:34;93609.69;;;-0.08;74.08
49393;BME280;35268;42.642;23.308;2023-01-28T12:44:10;93608.09;;;-0.09;74.10
49393;BME280;35268;42.642;23.308;2023-01-28T12:47:08;93617.78;;;-0.09;73.12
49393;BME280;35268;42.642;23.308;2023-01-28T12:52:29;93624.88;;;-0.10;74.30
49393;BME280;35268;42.642;23.308;2023-01-28T12:57:40;93629.88;;;-0.03;73.15
49393;BME280;35268;42.642;23.308;2023-01-28T13:00:35;93629.84;;;-0.08;73.22
49393;BME280;35268;42.642;23.308;2023-01-28T13:03:13;93629.84;;;-0.08;73.68
49393;BME280;35268;42.642;23.308;2023-01-28T13:05:51;93629.34;;;-0.05;73.79
49393;BME280;35268;42.642;23.308;2023-01-28T13:08:25;93628.03;;;-0.08;73.34
49393;BME280;35268;42.642;23.308;2023-01-28T13:10:51;93628.81;;;-0.02;73.94
49393;BME280;35268;42.642;23.308;2023-01-28T13:13:29;93639.31;;;-0.02;74.01
49393;BME280;35268;42.642;23.308;2023-01-28T13:15:56;93639.06;;;-0.01;73.54
49393;BME280;35268;42.642;23.308;2023-01-28T13:23:47;93641.41;;;-0.04;73.26
49393;BME280;35268;42.642;23.308;2023-01-28T13:28:46;93644.66;;;0.08;72.85
49393;BME280;35268;42.642;23.308;2023-01-28T13:31:14;93660.69;;;0.17;72.63
49393;BME280;35268;42.642;23.308;2023-01-28T13:33:48;93651.97;;;0.11;72.10
49393;BME280;35268;42.642;23.308;2023-01-28T13:36:25;93650.84;;;-0.03;72.32
49393;BME280;35268;42.642;23.308;2023-01-28T13:39:18;93653.97;;;-0.06;72.76
49393;BME280;35268;42.642;23.308;2023-01-28T13:44:31;93661.72;;;0.16;72.44
49393;BME280;35268;42.642;23.308;2023-01-28T13:49:36;93674.50;;;0.07;71.81
49393;BME280;35268;42.642;23.308;2023-01-28T13:54:35;93665.88;;;0.12;72.22
49393;BME280;35268;42.642;23.308;2023-01-28T13:59:48;93667.25;;;0.19;73.18
49393;BME280;35268;42.642;23.308;2023-01-28T14:02:39;93666.47;;;0.19;72.88
49393;BME280;35268;42.642;23.308;2023-01-28T14:08:21;93674.78;;;0.11;73.60
49393;BME280;35268;42.642;23.308;2023-01-28T14:16:43;93690.22;;;0.07;74.60
49393;BME280;35268;42.642;23.308;2023-01-28T14:19:27;93692.84;;;0.07;74.24
49393;BME280;35268;42.642;23.308;2023-01-28T14:21:54;93690.44;;;0.01;74.61
49393;BME280;35268;42.642;23.308;2023-01-28T14:24:20;93687.78;;;-0.05;73.84
49393;BME280;35268;42.642;23.308;2023-01-28T14:26:56;93697.69;;;-0.12;74.29
49393;BME280;35268;42.642;23.308;2023-01-28T14:29:31;93695.53;;;-0.20;75.37
49393;BME280;35268;42.642;23.308;2023-01-28T14:32:17;93701.78;;;-0.21;75.21
49393;BME280;35268;42.642;23.308;2023-01-28T14:34:44;93694.94;;;-0.27;76.19
49393;BME280;35268;42.642;23.308;2023-01-28T14:37:13;93699.19;;;-0.21;76.81
49393;BME280;35268;42.642;23.308;2023-01-28T14:39:57;93701.03;;;-0.16;75.73